sensor_id;sensor_type;location;lat;lon;timestamp;temperature;humidity
44729;DHT22;30457;53.590;9.922;2022-11-13T00:02:16;11.00;59.00
44729;DHT22;30457;53.590;9.922;2022-11-13T00:07:00;11.00;58.90
44729;DHT22;30457;53.590;9.922;2022-11-13T00:11:44;11.00;58.80
44729;DHT22;30457;53.590;9.922;2022-11-13T00:16:28;11.00;58.80
44729;DHT22;30457;53.590;9.922;2022-11-13T00:21:14;11.00;58.70
44729;DHT22;30457;53.590;9.922;2022-11-13T00:26:17;10.90;58.60
44729;DHT22;30457;53.590;9.922;2022-11-13T00:31:03;10.90;58.70
44729;DHT22;30457;53.590;9.922;2022-11-13T00:35:48;10.90;58.60
44729;DHT22;30457;53.590;9.922;2022-11-13T00:40:32;10.90;58.80
44729;DHT22;30457;53.590;9.922;2022-11-13T00:45:16;10.80;58.60
44729;DHT22;30457;53.590;9.922;2022-11-13T00:50:02;10.80;58.60
44729;DHT22;30457;53.590;9.922;2022-11-13T00:54:46;10.70;58.60
44729;DHT22;30457;53.590;9.922;2022-11-13T00:59:30;10.70;58.60
44729;DHT22;30457;53.590;9.922;2022-11-13T01:04:14;10.60;58.70
44729;DHT22;30457;53.590;9.922;2022-11-13T01:08:58;10.60;58.70
44729;DHT22;30457;53.590;9.922;2022-11-13T01:13:46;10.60;58.70
44729;DHT22;30457;53.590;9.922;2022-11-13T01:18:30;10.50;58.60
44729;DHT22;30457;53.590;9.922;2022-11-13T01:23:14;10.50;58.60
44729;DHT22;30457;53.590;9.922;2022-11-13T01:27:58;10.40;58.30
44729;DHT22;30457;53.590;9.922;2022-11-13T01:32:42;10.40;58.50
44729;DHT22;30457;53.590;9.922;2022-11-13T01:37:27;10.30;58.50
44729;DHT22;30457;53.590;9.922;2022-11-13T01:42:11;10.30;58.50
44729;DHT22;30457;53.590;9.922;2022-11-13T01:46:55;10.20;58.60
44729;DHT22;30457;53.590;9.922;2022-11-13T01:56:56;10.10;58.30
44729;DHT22;30457;53.590;9.922;2022-11-13T02:01:41;10.10;58.30
44729;DHT22;30457;53.590;9.922;2022-11-13T02:06:28;10.10;59.00
44729;DHT22;30457;53.590;9.922;2022-11-13T02:11:13;10.00;58.60
44729;DHT22;30457;53.590;9.922;2022-11-13T02:15:58;10.00;58.90
44729;DHT22;30457;53.590;9.922;2022-11-13T02:25:34;10.00;59.30
44729;DHT22;30457;53.590;9.922;2022-11-13T02:30:31;10.00;59.20
44729;DHT22;30457;53.590;9.922;2022-11-13T02:35:20;10.10;59.50
44729;DHT22;30457;53.590;9.922;2022-11-13T02:40:05;10.00;59.60
44729;DHT22;30457;53.590;9.922;2022-11-13T02:44:49;10.00;59.70
44729;DHT22;30457;53.590;9.922;2022-11-13T02:49:33;10.00;59.70
44729;DHT22;30457;53.590;9.922;2022-11-13T02:54:17;10.10;59.70
44729;DHT22;30457;53.590;9.922;2022-11-13T02:59:02;10.00;59.50
44729;DHT22;30457;53.590;9.922;2022-11-13T03:03:46;10.00;59.40
44729;DHT22;30457;53.590;9.922;2022-11-13T03:08:30;10.00;59.50
44729;DHT22;30457;53.590;9.922;2022-11-13T03:13:16;10.00;59.50
44729;DHT22;30457;53.590;9.922;2022-11-13T03:18:04;10.00;59.60
44729;DHT22;30457;53.590;9.922;2022-11-13T03:22:48;10.00;59.80
44729;DHT22;30457;53.590;9.922;2022-11-13T03:27:33;10.00;59.70
44729;DHT22;30457;53.590;9.922;2022-11-13T03:32:17;10.00;59.90
44729;DHT22;30457;53.590;9.922;2022-11-13T03:37:01;10.00;59.90
44729;DHT22;30457;53.590;9.922;2022-11-13T03:41:46;10.10;59.90
44729;DHT22;30457;53.590;9.922;2022-11-13T03:46:30;10.10;59.90
44729;DHT22;30457;53.590;9.922;2022-11-13T03:51:14;10.10;59.90
44729;DHT22;30457;53.590;9.922;2022-11-13T03:55:59;10.10;60.20
44729;DHT22;30457;53.590;9.922;2022-11-13T04:00:44;10.10;60.10
44729;DHT22;30457;53.590;9.922;2022-11-13T04:05:28;10.10;60.30
44729;DHT22;30457;53.590;9.922;2022-11-13T04:10:13;10.10;60.40
44729;DHT22;30457;53.590;9.922;2022-11-13T04:14:57;10.10;60.40
44729;DHT22;30457;53.590;9.922;2022-11-13T04:19:41;10.20;60.40
44729;DHT22;30457;53.590;9.922;2022-11-13T04:24:25;10.10;60.30
44729;DHT22;30457;53.590;9.922;2022-11-13T04:29:09;10.20;60.20
44729;DHT22;30457;53.590;9.922;2022-11-13T04:33:53;10.20;60.00
44729;DHT22;30457;53.590;9.922;2022-11-13T04:38:38;10.10;59.90
44729;DHT22;30457;53.590;9.922;2022-11-13T04:43:21;10.10;59.80
44729;DHT22;30457;53.590;9.922;2022-11-13T04:48:05;10.00;59.60
44729;DHT22;30457;53.590;9.922;2022-11-13T04:52:50;10.00;60.20
44729;DHT22;30457;53.590;9.922;2022-11-13T04:57:35;9.90;59.40
44729;DHT22;30457;53.590;9.922;2022-11-13T05:02:19;9.90;59.30
44729;DHT22;30457;53.590;9.922;2022-11-13T05:07:04;9.90;59.30
44729;DHT22;30457;53.590;9.922;2022-11-13T05:11:48;9.80;59.50
44729;DHT22;30457;53.590;9.922;2022-11-13T05:16:34;9.80;59.80
44729;DHT22;30457;53.590;9.922;2022-11-13T05:21:19;9.80;59.80
44729;DHT22;30457;53.590;9.922;2022-11-13T05:26:08;9.80;59.70
44729;DHT22;30457;53.590;9.922;2022-11-13T05:31:02;9.80;59.90
44729;DHT22;30457;53.590;9.922;2022-11-13T05:35:46;9.70;60.00
44729;DHT22;30457;53.590;9.922;2022-11-13T05:40:30;9.70;60.00
44729;DHT22;30457;53.590;9.922;2022-11-13T05:45:14;9.70;60.00
44729;DHT22;30457;53.590;9.922;2022-11-13T05:49:58;9.70;60.00
44729;DHT22;30457;53.590;9.922;2022-11-13T05:54:42;9.70;60.00
44729;DHT22;30457;53.590;9.922;2022-11-13T05:59:26;9.70;60.10
44729;DHT22;30457;53.590;9.922;2022-11-13T06:04:10;9.70;60.10
44729;DHT22;30457;53.590;9.922;2022-11-13T06:08:55;9.70;60.40
44729;DHT22;30457;53.590;9.922;2022-11-13T06:13:40;9.70;60.40
44729;DHT22;30457;53.590;9.922;2022-11-13T06:18:23;9.70;60.40
44729;DHT22;30457;53.590;9.922;2022-11-13T06:23:07;9.70;60.50
44729;DHT22;30457;53.590;9.922;2022-11-13T06:27:52;9.70;60.50
44729;DHT22;30457;53.590;9.922;2022-11-13T06:32:36;9.70;60.70
44729;DHT22;30457;53.590;9.922;2022-11-13T06:37:20;9.70;60.70
44729;DHT22;30457;53.590;9.922;2022-11-13T06:42:04;9.70;60.60
44729;DHT22;30457;53.590;9.922;2022-11-13T06:46:48;9.70;59.90
44729;DHT22;30457;53.590;9.922;2022-11-13T06:51:32;9.60;60.70
44729;DHT22;30457;53.590;9.922;2022-11-13T06:56:17;9.60;60.70
44729;DHT22;30457;53.590;9.922;2022-11-13T07:01:16;9.70;60.80
44729;DHT22;30457;53.590;9.922;2022-11-13T07:06:03;9.60;61.10
44729;DHT22;30457;53.590;9.922;2022-11-13T07:10:55;9.70;61.10
44729;DHT22;30457;53.590;9.922;2022-11-13T07:15:39;9.70;61.70
44729;DHT22;30457;53.590;9.922;2022-11-13T07:20:23;9.70;61.50
44729;DHT22;30457;53.590;9.922;2022-11-13T07:25:09;9.80;61.90
44729;DHT22;30457;53.590;9.922;2022-11-13T07:29:55;9.80;61.30
44729;DHT22;30457;53.590;9.922;2022-11-13T07:34:39;9.80;61.50
44729;DHT22;30457;53.590;9.922;2022-11-13T07:39:23;9.90;62.00
44729;DHT22;30457;53.590;9.922;2022-11-13T07:44:06;9.90;62.00
44729;DHT22;30457;53.590;9.922;2022-11-13T07:48:50;10.00;62.30
44729;DHT22;30457;53.590;9.922;2022-11-13T07:53:35;10.10;62.50
44729;DHT22;30457;53.590;9.922;2022-11-13T07:58:20;10.10;62.50
44729;DHT22;30457;53.590;9.922;2022-11-13T08:03:12;10.20;62.70
44729;DHT22;30457;53.590;9.922;2022-11-13T08:07:57;10.30;62.90
44729;DHT22;30457;53.590;9.922;2022-11-13T08:12:41;10.30;62.70
44729;DHT22;30457;53.590;9.922;2022-11-13T08:17:25;10.40;62.60
44729;DHT22;30457;53.590;9.922;2022-11-13T08:22:10;10.50;62.50
44729;DHT22;30457;53.590;9.922;2022-11-13T08:26:54;10.60;62.60
44729;DHT22;30457;53.590;9.922;2022-11-13T08:31:38;10.60;62.50
44729;DHT22;30457;53.590;9.922;2022-11-13T08:36:22;10.70;62.50
44729;DHT22;30457;53.590;9.922;2022-11-13T08:41:06;10.70;62.50
44729;DHT22;30457;53.590;9.922;2022-11-13T08:45:55;10.70;62.40
44729;DHT22;30457;53.590;9.922;2022-11-13T08:50:40;10.80;62.20
44729;DHT22;30457;53.590;9.922;2022-11-13T08:55:24;10.70;62.10
44729;DHT22;30457;53.590;9.922;2022-11-13T09:00:08;10.70;62.20
44729;DHT22;30457;53.590;9.922;2022-11-13T09:04:53;10.70;62.50
44729;DHT22;30457;53.590;9.922;2022-11-13T09:09:37;10.70;62.80
44729;DHT22;30457;53.590;9.922;2022-11-13T09:14:21;10.70;63.20
44729;DHT22;30457;53.590;9.922;2022-11-13T09:19:07;10.80;63.30
44729;DHT22;30457;53.590;9.922;2022-11-13T09:23:51;10.80;63.80
44729;DHT22;30457;53.590;9.922;2022-11-13T09:28:36;10.90;63.90
44729;DHT22;30457;53.590;9.922;2022-11-13T09:33:20;11.00;64.40
44729;DHT22;30457;53.590;9.922;2022-11-13T09:38:06;11.10;63.70
44729;DHT22;30457;53.590;9.922;2022-11-13T09:42:51;11.10;63.70
44729;DHT22;30457;53.590;9.922;2022-11-13T09:47:40;11.20;63.80
44729;DHT22;30457;53.590;9.922;2022-11-13T09:52:30;11.30;63.70
44729;DHT22;30457;53.590;9.922;2022-11-13T09:57:39;11.30;63.60
44729;DHT22;30457;53.590;9.922;2022-11-13T10:03:00;11.40;64.50
44729;DHT22;30457;53.590;9.922;2022-11-13T10:08:15;11.40;64.50
44729;DHT22;30457;53.590;9.922;2022-11-13T10:13:01;11.50;64.50
44729;DHT22;30457;53.590;9.922;2022-11-13T10:17:54;11.60;64.00
44729;DHT22;30457;53.590;9.922;2022-11-13T10:27:54;11.70;64.30
44729;DHT22;30457;53.590;9.922;2022-11-13T10:32:39;11.80;63.50
44729;DHT22;30457;53.590;9.922;2022-11-13T10:37:44;11.90;63.60
44729;DHT22;30457;53.590;9.922;2022-11-13T10:42:41;11.90;63.70
44729;DHT22;30457;53.590;9.922;2022-11-13T10:47:27;12.00;63.40
44729;DHT22;30457;53.590;9.922;2022-11-13T10:52:19;12.10;63.30
44729;DHT22;30457;53.590;9.922;2022-11-13T10:57:13;12.10;63.20
44729;DHT22;30457;53.590;9.922;2022-11-13T11:02:15;12.10;62.70
44729;DHT22;30457;53.590;9.922;2022-11-13T11:07:15;12.10;63.60
44729;DHT22;30457;53.590;9.922;2022-11-13T11:12:10;12.20;63.00
44729;DHT22;30457;53.590;9.922;2022-11-13T11:17:03;12.20;62.80
44729;DHT22;30457;53.590;9.922;2022-11-13T11:21:50;12.20;62.60
44729;DHT22;30457;53.590;9.922;2022-11-13T11:26:40;12.20;62.60
44729;DHT22;30457;53.590;9.922;2022-11-13T11:31:38;12.20;62.50
44729;DHT22;30457;53.590;9.922;2022-11-13T11:36:32;12.20;62.70
44729;DHT22;30457;53.590;9.922;2022-11-13T11:41:20;12.30;62.50
44729;DHT22;30457;53.590;9.922;2022-11-13T11:46:14;12.30;62.60
44729;DHT22;30457;53.590;9.922;2022-11-13T11:51:21;12.30;62.60
44729;DHT22;30457;53.590;9.922;2022-11-13T11:56:26;12.40;63.00
44729;DHT22;30457;53.590;9.922;2022-11-13T12:01:25;12.40;62.60
44729;DHT22;30457;53.590;9.922;2022-11-13T12:11:34;12.50;62.70
44729;DHT22;30457;53.590;9.922;2022-11-13T12:27:12;12.60;62.30
44729;DHT22;30457;53.590;9.922;2022-11-13T12:37:10;12.70;61.80
44729;DHT22;30457;53.590;9.922;2022-11-13T12:42:05;12.60;61.60
44729;DHT22;30457;53.590;9.922;2022-11-13T12:46:55;12.70;61.60
44729;DHT22;30457;53.590;9.922;2022-11-13T12:51:51;12.70;61.40
44729;DHT22;30457;53.590;9.922;2022-11-13T12:56:36;12.80;61.30
44729;DHT22;30457;53.590;9.922;2022-11-13T13:01:21;12.80;61.20
44729;DHT22;30457;53.590;9.922;2022-11-13T13:06:11;12.70;61.10
44729;DHT22;30457;53.590;9.922;2022-11-13T13:16:00;12.80;61.40
44729;DHT22;30457;53.590;9.922;2022-11-13T13:21:13;12.80;61.30
44729;DHT22;30457;53.590;9.922;2022-11-13T13:31:05;12.80;62.10
44729;DHT22;30457;53.590;9.922;2022-11-13T13:36:15;12.90;61.10
44729;DHT22;30457;53.590;9.922;2022-11-13T13:46:23;12.90;61.00
44729;DHT22;30457;53.590;9.922;2022-11-13T13:51:36;12.90;60.80
44729;DHT22;30457;53.590;9.922;2022-11-13T13:56:20;13.00;61.00
44729;DHT22;30457;53.590;9.922;2022-11-13T14:01:14;13.00;61.10
44729;DHT22;30457;53.590;9.922;2022-11-13T14:06:21;13.00;61.00
44729;DHT22;30457;53.590;9.922;2022-11-13T14:11:21;13.00;60.90
44729;DHT22;30457;53.590;9.922;2022-11-13T14:16:06;13.00;60.80
44729;DHT22;30457;53.590;9.922;2022-11-13T14:20:52;13.00;60.70
44729;DHT22;30457;53.590;9.922;2022-11-13T14:25:37;13.10;60.80
44729;DHT22;30457;53.590;9.922;2022-11-13T14:30:25;13.10;60.80
44729;DHT22;30457;53.590;9.922;2022-11-13T14:35:18;13.10;60.80
44729;DHT22;30457;53.590;9.922;2022-11-13T14:40:27;13.10;60.80
44729;DHT22;30457;53.590;9.922;2022-11-13T14:45:19;13.10;60.90
44729;DHT22;30457;53.590;9.922;2022-11-13T14:50:20;13.10;60.90
44729;DHT22;30457;53.590;9.922;2022-11-13T14:55:05;13.00;61.00
44729;DHT22;30457;53.590;9.922;2022-11-13T14:59:51;13.00;60.80
44729;DHT22;30457;53.590;9.922;2022-11-13T15:04:35;13.10;61.00
44729;DHT22;30457;53.590;9.922;2022-11-13T15:09:19;13.00;61.00
44729;DHT22;30457;53.590;9.922;2022-11-13T15:14:09;13.00;60.90
44729;DHT22;30457;53.590;9.922;2022-11-13T15:18:55;13.00;61.30
44729;DHT22;30457;53.590;9.922;2022-11-13T15:23:41;13.00;61.10
44729;DHT22;30457;53.590;9.922;2022-11-13T15:28:26;13.00;61.20
44729;DHT22;30457;53.590;9.922;2022-11-13T15:33:13;13.00;61.40
44729;DHT22;30457;53.590;9.922;2022-11-13T15:37:58;13.00;61.60
44729;DHT22;30457;53.590;9.922;2022-11-13T15:42:42;13.00;61.60
44729;DHT22;30457;53.590;9.922;2022-11-13T15:47:30;13.00;61.70
44729;DHT22;30457;53.590;9.922;2022-11-13T15:52:15;13.00;61.60
44729;DHT22;30457;53.590;9.922;2022-11-13T15:56:59;13.00;61.70
44729;DHT22;30457;53.590;9.922;2022-11-13T16:01:43;13.00;61.80
44729;DHT22;30457;53.590;9.922;2022-11-13T16:06:27;13.00;61.70
44729;DHT22;30457;53.590;9.922;2022-11-13T16:11:17;13.00;61.80
44729;DHT22;30457;53.590;9.922;2022-11-13T16:16:02;13.00;61.90
44729;DHT22;30457;53.590;9.922;2022-11-13T16:20:46;13.10;61.80
44729;DHT22;30457;53.590;9.922;2022-11-13T16:25:30;13.10;61.90
44729;DHT22;30457;53.590;9.922;2022-11-13T16:30:20;13.10;62.00
44729;DHT22;30457;53.590;9.922;2022-11-13T16:35:07;13.10;62.30
44729;DHT22;30457;53.590;9.922;2022-11-13T16:39:51;13.10;62.30
44729;DHT22;30457;53.590;9.922;2022-11-13T16:44:36;13.10;62.20
44729;DHT22;30457;53.590;9.922;2022-11-13T16:49:20;13.10;62.30
44729;DHT22;30457;53.590;9.922;2022-11-13T16:54:04;13.20;62.50
44729;DHT22;30457;53.590;9.922;2022-11-13T16:58:49;13.20;62.50
44729;DHT22;30457;53.590;9.922;2022-11-13T17:03:33;13.20;62.70
44729;DHT22;30457;53.590;9.922;2022-11-13T17:08:18;13.20;62.80
44729;DHT22;30457;53.590;9.922;2022-11-13T17:13:03;13.20;62.60
44729;DHT22;30457;53.590;9.922;2022-11-13T17:17:47;13.20;62.70
44729;DHT22;30457;53.590;9.922;2022-11-13T17:22:31;13.20;62.80
44729;DHT22;30457;53.590;9.922;2022-11-13T17:27:16;13.20;63.00
44729;DHT22;30457;53.590;9.922;2022-11-13T17:32:00;13.20;63.00
44729;DHT22;30457;53.590;9.922;2022-11-13T17:36:44;13.30;63.10
44729;DHT22;30457;53.590;9.922;2022-11-13T17:41:28;13.30;63.10
44729;DHT22;30457;53.590;9.922;2022-11-13T17:46:14;13.30;63.20
44729;DHT22;30457;53.590;9.922;2022-11-13T17:51:01;13.30;63.10
44729;DHT22;30457;53.590;9.922;2022-11-13T17:55:55;13.30;63.10
44729;DHT22;30457;53.590;9.922;2022-11-13T18:00:39;13.30;63.20
44729;DHT22;30457;53.590;9.922;2022-11-13T18:05:23;13.40;63.00
44729;DHT22;30457;53.590;9.922;2022-11-13T18:10:08;13.40;63.00
44729;DHT22;30457;53.590;9.922;2022-11-13T18:14:54;13.40;62.90
44729;DHT22;30457;53.590;9.922;2022-11-13T18:19:38;13.40;62.80
44729;DHT22;30457;53.590;9.922;2022-11-13T18:24:22;13.40;62.90
44729;DHT22;30457;53.590;9.922;2022-11-13T18:29:06;13.40;62.80
44729;DHT22;30457;53.590;9.922;2022-11-13T18:33:50;13.40;62.90
44729;DHT22;30457;53.590;9.922;2022-11-13T18:38:35;13.40;62.90
44729;DHT22;30457;53.590;9.922;2022-11-13T18:43:19;13.40;63.00
44729;DHT22;30457;53.590;9.922;2022-11-13T18:48:03;13.40;62.90
44729;DHT22;30457;53.590;9.922;2022-11-13T18:52:47;13.40;62.90
44729;DHT22;30457;53.590;9.922;2022-11-13T18:57:32;13.40;62.80
44729;DHT22;30457;53.590;9.922;2022-11-13T19:02:16;13.50;62.80
44729;DHT22;30457;53.590;9.922;2022-11-13T19:07:00;13.50;62.80
44729;DHT22;30457;53.590;9.922;2022-11-13T19:11:45;13.50;62.70
44729;DHT22;30457;53.590;9.922;2022-11-13T19:16:35;13.50;62.30
44729;DHT22;30457;53.590;9.922;2022-11-13T19:21:23;13.50;62.40
44729;DHT22;30457;53.590;9.922;2022-11-13T19:26:08;13.50;62.30
44729;DHT22;30457;53.590;9.922;2022-11-13T19:30:52;13.50;62.10
44729;DHT22;30457;53.590;9.922;2022-11-13T19:35:39;13.50;62.00
44729;DHT22;30457;53.590;9.922;2022-11-13T19:40:23;13.50;61.80
44729;DHT22;30457;53.590;9.922;2022-11-13T19:45:07;13.50;61.80
44729;DHT22;30457;53.590;9.922;2022-11-13T19:49:52;13.50;61.60
44729;DHT22;30457;53.590;9.922;2022-11-13T19:54:36;13.50;61.50
44729;DHT22;30457;53.590;9.922;2022-11-13T19:59:21;13.50;61.40
44729;DHT22;30457;53.590;9.922;2022-11-13T20:04:05;13.50;61.20
44729;DHT22;30457;53.590;9.922;2022-11-13T20:08:49;13.50;61.00
44729;DHT22;30457;53.590;9.922;2022-11-13T20:13:33;13.50;60.80
44729;DHT22;30457;53.590;9.922;2022-11-13T20:18:19;13.50;60.60
44729;DHT22;30457;53.590;9.922;2022-11-13T20:23:03;13.50;60.50
44729;DHT22;30457;53.590;9.922;2022-11-13T20:27:48;13.50;60.40
44729;DHT22;30457;53.590;9.922;2022-11-13T20:32:35;13.60;60.40
44729;DHT22;30457;53.590;9.922;2022-11-13T20:37:20;13.60;60.20
44729;DHT22;30457;53.590;9.922;2022-11-13T20:42:04;13.60;60.30
44729;DHT22;30457;53.590;9.922;2022-11-13T20:46:49;13.60;60.20
44729;DHT22;30457;53.590;9.922;2022-11-13T20:51:33;13.60;60.10
44729;DHT22;30457;53.590;9.922;2022-11-13T20:56:19;13.60;60.00
44729;DHT22;30457;53.590;9.922;2022-11-13T21:01:09;13.60;59.90
44729;DHT22;30457;53.590;9.922;2022-11-13T21:05:54;13.60;59.90
44729;DHT22;30457;53.590;9.922;2022-11-13T21:10:38;13.60;59.90
44729;DHT22;30457;53.590;9.922;2022-11-13T21:15:22;13.60;59.90
44729;DHT22;30457;53.590;9.922;2022-11-13T21:20:07;13.60;60.00
44729;DHT22;30457;53.590;9.922;2022-11-13T21:24:51;13.60;60.60
44729;DHT22;30457;53.590;9.922;2022-11-13T21:29:35;13.60;60.00
44729;DHT22;30457;53.590;9.922;2022-11-13T21:34:19;13.70;59.90
44729;DHT22;30457;53.590;9.922;2022-11-13T21:39:03;13.70;59.80
44729;DHT22;30457;53.590;9.922;2022-11-13T21:43:48;13.70;59.80
44729;DHT22;30457;53.590;9.922;2022-11-13T21:48:33;13.70;59.70
44729;DHT22;30457;53.590;9.922;2022-11-13T21:53:16;13.60;59.70
44729;DHT22;30457;53.590;9.922;2022-11-13T21:58:01;13.60;59.80
44729;DHT22;30457;53.590;9.922;2022-11-13T22:02:46;13.60;59.70
44729;DHT22;30457;53.590;9.922;2022-11-13T22:07:30;13.60;59.50
44729;DHT22;30457;53.590;9.922;2022-11-13T22:12:14;13.60;59.50
44729;DHT22;30457;53.590;9.922;2022-11-13T22:16:59;13.50;59.60
44729;DHT22;30457;53.590;9.922;2022-11-13T22:21:44;13.50;59.70
44729;DHT22;30457;53.590;9.922;2022-11-13T22:26:29;13.50;59.60
44729;DHT22;30457;53.590;9.922;2022-11-13T22:31:16;13.50;59.60
44729;DHT22;30457;53.590;9.922;2022-11-13T22:36:03;13.40;60.30
44729;DHT22;30457;53.590;9.922;2022-11-13T22:40:47;13.40;59.70
44729;DHT22;30457;53.590;9.922;2022-11-13T22:45:32;13.40;59.60
44729;DHT22;30457;53.590;9.922;2022-11-13T22:50:16;13.40;59.60
44729;DHT22;30457;53.590;9.922;2022-11-13T22:55:00;13.40;59.50
44729;DHT22;30457;53.590;9.922;2022-11-13T22:59:44;13.30;59.50
44729;DHT22;30457;53.590;9.922;2022-11-13T23:04:28;13.30;59.50
44729;DHT22;30457;53.590;9.922;2022-11-13T23:09:12;13.30;59.40
44729;DHT22;30457;53.590;9.922;2022-11-13T23:13:58;13.30;59.40
44729;DHT22;30457;53.590;9.922;2022-11-13T23:18:42;13.20;59.30
44729;DHT22;30457;53.590;9.922;2022-11-13T23:23:26;13.20;59.40
44729;DHT22;30457;53.590;9.922;2022-11-13T23:28:11;13.10;59.20
44729;DHT22;30457;53.590;9.922;2022-11-13T23:32:55;13.10;59.30
44729;DHT22;30457;53.590;9.922;2022-11-13T23:37:39;13.10;59.40
44729;DHT22;30457;53.590;9.922;2022-11-13T23:42:23;13.00;59.30
44729;DHT22;30457;53.590;9.922;2022-11-13T23:47:07;13.00;59.30
44729;DHT22;30457;53.590;9.922;2022-11-13T23:51:51;13.00;59.30
44729;DHT22;30457;53.590;9.922;2022-11-13T23:56:35;12.90;59.30
